createdAt,value
2022-07-30T00:01:39.263Z,101911.78
2022-07-30T00:06:28.862Z,101910.88
2022-07-30T00:11:19.072Z,101905.72
2022-07-30T00:16:13.381Z,101908.38
2022-07-30T00:21:03.102Z,101907.50
2022-07-30T00:25:52.963Z,101899.72
2022-07-30T00:30:43.193Z,101901.44
2022-07-30T00:35:35.883Z,101895.38
2022-07-30T00:40:25.618Z,101877.25
2022-07-30T00:45:16.881Z,101898.13
2022-07-30T00:50:07.931Z,101897.28
2022-07-30T00:55:00.629Z,101887.75
2022-07-30T00:59:50.262Z,101897.31
2022-07-30T01:04:39.899Z,101897.34
2022-07-30T01:09:29.594Z,101895.75
2022-07-30T01:14:22.720Z,101895.84
2022-07-30T01:19:31.190Z,101873.16
2022-07-30T01:24:37.990Z,101894.06
2022-07-30T01:29:32.121Z,101888.06
2022-07-30T01:34:22.874Z,101880.25
2022-07-30T01:39:12.777Z,101880.31
2022-07-30T01:44:04.788Z,101882.91
2022-07-30T01:48:59.563Z,101882.03
2022-07-30T01:53:54.656Z,101882.88
2022-07-30T01:58:46.458Z,101893.41
2022-07-30T02:03:42.485Z,101889.03
2022-07-30T02:08:41.731Z,101896.06
2022-07-30T02:13:33.120Z,101888.25
2022-07-30T02:18:25.936Z,101895.25
2022-07-30T02:23:19.526Z,101895.19
2022-07-30T02:28:15.762Z,101901.41
2022-07-30T02:33:11.901Z,101897.06
2022-07-30T02:38:03.245Z,101889.25
2022-07-30T02:42:56.053Z,101898.03
2022-07-30T02:47:54.231Z,101894.56
2022-07-30T02:52:46.291Z,101894.63
2022-07-30T02:57:36.994Z,101893.72
2022-07-30T03:02:34.753Z,101887.69
2022-07-30T03:07:31.284Z,101899.06
2022-07-30T03:12:21.825Z,101901.75
2022-07-30T03:17:13.726Z,101893.09
2022-07-30T03:22:06.142Z,101896.56
2022-07-30T03:27:01.168Z,101882.75
2022-07-30T03:31:52.614Z,101891.41
2022-07-30T03:36:44.352Z,101894.00
2022-07-30T03:41:35.279Z,101896.63
2022-07-30T03:46:29.917Z,101905.38
2022-07-30T03:51:20.504Z,101902.84
2022-07-30T03:56:11.328Z,101910.69
2022-07-30T04:01:17.539Z,101915.13
2022-07-30T04:06:10.558Z,101917.75
2022-07-30T04:11:00.752Z,101917.78
2022-07-30T04:16:40.982Z,101923.84
2022-07-30T04:21:29.710Z,101931.78
2022-07-30T04:26:20.612Z,101932.59
2022-07-30T04:31:11.506Z,101920.50
2022-07-30T04:36:01.251Z,101926.56
2022-07-30T04:40:58.130Z,101933.47
2022-07-30T04:45:50.197Z,101945.66
2022-07-30T04:50:45.511Z,101939.59
2022-07-30T04:55:38.771Z,101936.97
2022-07-30T05:00:32.622Z,101947.38
2022-07-30T05:05:24.281Z,101950.00
2022-07-30T05:10:15.759Z,101956.06
2022-07-30T05:15:06.392Z,101959.56
2022-07-30T05:19:58.907Z,101955.22
2022-07-30T05:24:51.181Z,101963.91
2022-07-30T05:29:40.931Z,101964.75
2022-07-30T05:34:35.796Z,101961.25
2022-07-30T05:39:28.071Z,101964.75
2022-07-30T05:44:43.924Z,101975.22
2022-07-30T05:49:37.118Z,101975.22
2022-07-30T05:54:37.372Z,101981.31
2022-07-30T05:59:47.531Z,101979.53
2022-07-30T06:04:47.080Z,101994.31
2022-07-30T06:09:39.973Z,101988.22
2022-07-30T06:14:32.241Z,101972.56
2022-07-30T06:19:22.337Z,101986.44
2022-07-30T06:24:16.662Z,101982.91
2022-07-30T06:29:19.858Z,101988.09
2022-07-30T06:34:13.515Z,101984.59
2022-07-30T06:39:05.892Z,101980.16
2022-07-30T06:44:27.663Z,101985.34
2022-07-30T06:49:36.927Z,101984.53
2022-07-30T06:54:27.705Z,101995.78
2022-07-30T06:59:17.407Z,101992.22
2022-07-30T07:04:10.798Z,102000.88
2022-07-30T07:09:02.545Z,101993.84
2022-07-30T07:14:04.936Z,101987.75
2022-07-30T07:18:58.709Z,101985.91
2022-07-30T07:23:54.223Z,101997.19
2022-07-30T07:29:05.119Z,102001.47
2022-07-30T07:33:57.152Z,102002.38
2022-07-30T07:38:47.408Z,102016.25
2022-07-30T07:43:40.637Z,102018.00
2022-07-30T07:48:33.646Z,102021.47
2022-07-30T07:53:40.456Z,102015.22
2022-07-30T07:58:31.094Z,102007.28
2022-07-30T08:03:26.555Z,102022.00
2022-07-30T08:08:17.939Z,102010.41
2022-07-30T08:13:48.970Z,102000.31
2022-07-30T08:18:57.135Z,102003.13
2022-07-30T08:23:57.368Z,101996.69
2022-07-30T08:28:47.090Z,101992.41
2022-07-30T08:33:37.051Z,101997.34
2022-07-30T08:38:30.149Z,101985.53
2022-07-30T08:43:21.511Z,101992.06
2022-07-30T08:48:16.668Z,101994.13
2022-07-30T08:53:09.623Z,101998.69
2022-07-30T08:58:03.194Z,102004.94
2022-07-30T09:02:53.289Z,101995.78
2022-07-30T09:07:44.050Z,102012.50
2022-07-30T09:12:43.151Z,102006.72
2022-07-30T09:17:53.421Z,102018.09
2022-07-30T09:22:46.327Z,102007.47
2022-07-30T09:27:54.574Z,102013.09
2022-07-30T09:33:05.678Z,102016.50
2022-07-30T09:38:18.051Z,102011.88
2022-07-30T09:43:12.504Z,102006.31
2022-07-30T09:48:24.048Z,102006.09
2022-07-30T09:53:15.916Z,101996.66
2022-07-30T09:58:07.495Z,101996.34
2022-07-30T10:03:00.488Z,101998.88
2022-07-30T10:08:23.745Z,102000.81
2022-07-30T10:13:20.503Z,102001.88
2022-07-30T10:18:13.637Z,101995.19
2022-07-30T10:23:29.784Z,101999.66
2022-07-30T10:29:02.605Z,101997.56
2022-07-30T10:33:53.093Z,101998.38
2022-07-30T10:38:52.668Z,101994.81
2022-07-30T10:44:09.116Z,101984.84
2022-07-30T10:49:11.817Z,101994.63
2022-07-30T10:54:42.777Z,101998.19
2022-07-30T11:00:05.666Z,101985.88
2022-07-30T11:05:44.185Z,101977.31
2022-07-30T11:10:44.033Z,101983.88
2022-07-30T11:15:57.484Z,101982.19
2022-07-30T11:21:21.279Z,101986.63
2022-07-30T11:26:50.725Z,101985.81
2022-07-30T11:31:56.687Z,101986.75
2022-07-30T11:37:19.093Z,101998.19
2022-07-30T11:42:31.491Z,101987.47
2022-07-30T11:47:22.575Z,101981.00
2022-07-30T11:52:12.451Z,101980.38
2022-07-30T11:57:04.638Z,101979.00
2022-07-30T12:02:03.118Z,101985.41
2022-07-30T12:06:55.547Z,101981.97
2022-07-30T12:11:45.395Z,101991.22
2022-07-30T12:16:36.403Z,101981.50
2022-07-30T12:21:29.238Z,101972.88
2022-07-30T12:26:27.411Z,101984.53
2022-07-30T12:31:18.930Z,101978.28
2022-07-30T12:36:10.415Z,101986.63
2022-07-30T12:41:05.380Z,101987.19
2022-07-30T12:46:01.342Z,101979.78
2022-07-30T12:50:51.040Z,101971.53
2022-07-30T12:55:47.221Z,101979.06
2022-07-30T13:00:52.332Z,101962.47
2022-07-30T13:05:46.893Z,101974.78
2022-07-30T13:10:36.979Z,101960.75
2022-07-30T13:15:26.736Z,101958.38
2022-07-30T13:20:21.205Z,101961.72
2022-07-30T13:25:12.909Z,101960.50
2022-07-30T13:30:02.660Z,101961.63
2022-07-30T13:34:52.302Z,101946.56
2022-07-30T13:39:44.778Z,101955.88
2022-07-30T13:44:34.476Z,101943.91
2022-07-30T13:49:24.343Z,101942.25
2022-07-30T13:54:20.609Z,101940.22
2022-07-30T13:59:13.149Z,101936.81
2022-07-30T14:04:02.903Z,101936.69
2022-07-30T14:08:52.619Z,101930.94
2022-07-30T14:13:42.494Z,101924.53
2022-07-30T14:18:34.906Z,101917.78
2022-07-30T14:23:27.154Z,101910.50
2022-07-30T14:28:16.857Z,101921.38
2022-07-30T14:33:06.673Z,101914.34
2022-07-30T14:37:59.011Z,101907.00
2022-07-30T14:42:49.255Z,101909.84
2022-07-30T14:47:39.466Z,101900.19
2022-07-30T14:52:29.246Z,101900.66
2022-07-30T14:57:21.832Z,101906.41
2022-07-30T15:02:11.741Z,101911.41
2022-07-30T15:07:02.129Z,101913.78
2022-07-30T15:12:08.260Z,101915.13
2022-07-30T15:17:08.916Z,101903.56
2022-07-30T15:21:59.133Z,101903.22
2022-07-30T15:26:48.928Z,101907.94
2022-07-30T15:31:39.280Z,101905.50
2022-07-30T15:36:31.959Z,101905.78
2022-07-30T15:41:21.879Z,101904.00
2022-07-30T15:46:11.957Z,101912.94
2022-07-30T15:51:04.431Z,101908.84
2022-07-30T15:55:56.780Z,101909.84
2022-07-30T16:00:46.721Z,101908.19
2022-07-30T16:05:52.354Z,101912.44
2022-07-30T16:10:43.283Z,101905.53
2022-07-30T16:15:35.668Z,101904.59
2022-07-30T16:20:25.432Z,101894.66
2022-07-30T16:25:15.410Z,101900.31
2022-07-30T16:30:05.466Z,101896.13
2022-07-30T16:34:57.714Z,101890.75
2022-07-30T16:39:47.487Z,101887.06
2022-07-30T16:44:37.455Z,101872.78
2022-07-30T16:49:28.497Z,101869.09
2022-07-30T16:54:23.924Z,101862.47
2022-07-30T16:59:14.542Z,101856.38
2022-07-30T17:04:04.342Z,101848.56
2022-07-30T17:08:57.380Z,101842.75
2022-07-30T17:13:50.289Z,101843.59
2022-07-30T17:18:40.135Z,101847.25
2022-07-30T17:23:30.460Z,101840.38
2022-07-30T17:28:26.993Z,101836.94
2022-07-30T17:33:19.813Z,101839.31
2022-07-30T17:38:10.047Z,101848.13
2022-07-30T17:43:04.069Z,101842.34
2022-07-30T17:47:54.239Z,101838.13
2022-07-30T17:52:46.708Z,101836.63
2022-07-30T17:57:36.308Z,101843.19
2022-07-30T18:02:31.852Z,101844.69
2022-07-30T18:07:22.558Z,101839.53
2022-07-30T18:12:21.255Z,101837.53
2022-07-30T18:17:14.419Z,101841.13
2022-07-30T18:22:04.883Z,101831.22
2022-07-30T18:26:56.524Z,101826.81
2022-07-30T18:31:49.011Z,101839.19
2022-07-30T18:36:38.678Z,101834.91
2022-07-30T18:41:30.110Z,101833.22
2022-07-30T18:46:21.244Z,101835.34
2022-07-30T18:51:14.244Z,101833.03
2022-07-30T18:56:04.637Z,101827.84
2022-07-30T19:00:54.405Z,101818.50
2022-07-30T19:05:44.579Z,101826.56
2022-07-30T19:10:37.560Z,101831.84
2022-07-30T19:15:31.499Z,101833.78
2022-07-30T19:20:22.514Z,101827.88
2022-07-30T19:25:13.316Z,101824.53
2022-07-30T19:30:06.433Z,101829.88
2022-07-30T19:34:56.462Z,101808.22
2022-07-30T19:40:06.457Z,101824.09
2022-07-30T19:44:57.798Z,101826.13
2022-07-30T19:49:55.568Z,101828.13
2022-07-30T19:54:47.108Z,101831.19
2022-07-30T19:59:45.547Z,101833.22
2022-07-30T20:04:46.775Z,101834.25
2022-07-30T20:09:42.666Z,101841.38
2022-07-30T20:14:33.327Z,101845.25
2022-07-30T20:19:26.414Z,101843.50
2022-07-30T20:24:25.792Z,101868.22
2022-07-30T20:29:19.201Z,101871.28
2022-07-30T20:34:16.222Z,101863.78
2022-07-30T20:39:18.394Z,101891.44
2022-07-30T20:44:14.947Z,101881.28
2022-07-30T20:49:24.323Z,101878.16
2022-07-30T20:54:25.449Z,101875.13
2022-07-30T20:59:16.529Z,101874.56
2022-07-30T21:04:07.873Z,101877.59
2022-07-30T21:09:01.340Z,101873.38
2022-07-30T21:13:51.156Z,101873.66
2022-07-30T21:18:41.666Z,101865.00
2022-07-30T21:23:38.627Z,101869.28
2022-07-30T21:28:35.461Z,101870.25
2022-07-30T21:33:31.239Z,101871.31
2022-07-30T21:38:21.745Z,101874.09
2022-07-30T21:43:13.309Z,101868.16
2022-07-30T21:48:05.510Z,101864.00
2022-07-30T21:52:55.125Z,101865.59
2022-07-30T21:57:44.744Z,101859.63
2022-07-30T22:02:34.440Z,101858.06
2022-07-30T22:07:26.924Z,101859.84
2022-07-30T22:12:18.071Z,101873.88
2022-07-30T22:17:22.860Z,101855.66
2022-07-30T22:22:27.350Z,101861.81
2022-07-30T22:27:21.937Z,101862.84
2022-07-30T22:32:11.738Z,101859.34
2022-07-30T22:37:01.973Z,101863.00
2022-07-30T22:41:51.850Z,101868.28
2022-07-30T22:46:44.091Z,101870.84
2022-07-30T22:52:01.858Z,101874.59
2022-07-30T22:56:46.076Z,101875.59
2022-07-30T23:01:38.954Z,101871.31
2022-07-30T23:06:35.272Z,101862.53
2022-07-30T23:11:24.911Z,101846.31
2022-07-30T23:16:26.827Z,101835.06
2022-07-30T23:21:16.858Z,101834.25
2022-07-30T23:26:09.476Z,101823.88
2022-07-30T23:30:59.484Z,101817.75
2022-07-30T23:35:49.410Z,101813.34
2022-07-30T23:40:39.056Z,101809.94
2022-07-30T23:45:31.440Z,101816.13
2022-07-30T23:50:21.243Z,101797.25
2022-07-30T23:55:12.017Z,101816.28
